createdAt,value
2019-02-14T00:00:07.623Z,12.73
2019-02-14T00:05:16.406Z,12.60
2019-02-14T00:10:16.973Z,11.75
2019-02-14T00:15:21.002Z,9.30
2019-02-14T00:20:24.299Z,12.05
2019-02-14T00:25:27.748Z,10.28
2019-02-14T00:30:31.831Z,9.75
2019-02-14T00:35:35.297Z,12.20
2019-02-14T00:40:38.657Z,11.12
2019-02-14T00:45:43.154Z,8.55
2019-02-14T00:50:46.649Z,9.63
2019-02-14T00:55:49.937Z,10.20
2019-02-14T01:00:53.231Z,9.85
2019-02-14T01:05:57.416Z,11.10
2019-02-14T01:11:00.818Z,10.05
2019-02-14T01:16:04.174Z,8.25
2019-02-14T01:21:07.606Z,9.35
2019-02-14T01:26:10.965Z,8.70
2019-02-14T01:31:15.054Z,10.13
2019-02-14T01:36:18.509Z,8.28
2019-02-14T01:41:22.674Z,8.98
2019-02-14T01:46:26.110Z,9.65
2019-02-14T01:51:29.525Z,10.85
2019-02-14T01:56:32.819Z,8.13
2019-02-14T02:01:37.689Z,7.53
2019-02-14T02:06:41.242Z,8.65
2019-02-14T02:11:45.637Z,9.85
2019-02-14T02:16:49.563Z,8.58
2019-02-14T02:21:52.847Z,7.35
2019-02-14T02:26:56.145Z,10.60
2019-02-14T02:31:59.498Z,9.45
2019-02-14T02:37:02.928Z,8.98
2019-02-14T02:42:06.958Z,8.75
2019-02-14T02:47:10.366Z,8.58
2019-02-14T02:52:13.870Z,9.85
2019-02-14T02:57:17.290Z,7.97
2019-02-14T03:02:20.577Z,10.55
2019-02-14T03:07:24.013Z,8.90
2019-02-14T03:12:27.306Z,9.85
2019-02-14T03:17:32.439Z,11.68
2019-02-14T03:22:36.313Z,8.58
2019-02-14T03:27:39.601Z,7.80
2019-02-14T03:32:44.143Z,8.38
2019-02-14T03:37:47.675Z,7.17
2019-02-14T03:42:52.035Z,7.60
2019-02-14T03:47:55.525Z,7.87
2019-02-14T03:53:00.574Z,8.48
2019-02-14T03:58:05.626Z,8.53
2019-02-14T04:03:09.042Z,10.43
2019-02-14T04:08:12.450Z,7.62
2019-02-14T04:13:17.424Z,10.03
2019-02-14T04:18:20.858Z,7.10
2019-02-14T04:23:24.149Z,10.58
2019-02-14T04:28:28.005Z,7.83
2019-02-14T04:33:32.780Z,11.93
2019-02-14T04:38:36.416Z,8.80
2019-02-14T04:43:39.833Z,9.05
2019-02-14T04:48:44.678Z,8.60
2019-02-14T04:53:48.093Z,7.20
2019-02-14T04:58:51.373Z,8.50
2019-02-14T05:03:54.819Z,7.87
2019-02-14T05:08:58.234Z,6.70
2019-02-14T05:14:01.761Z,6.40
2019-02-14T05:19:06.126Z,7.67
2019-02-14T05:24:09.737Z,9.15
2019-02-14T05:29:13.090Z,8.98
2019-02-14T05:34:16.531Z,7.92
2019-02-14T05:39:21.785Z,6.72
2019-02-14T05:44:25.201Z,9.13
2019-02-14T05:49:28.490Z,8.73
2019-02-14T05:54:33.565Z,10.15
2019-02-14T05:59:36.853Z,14.75
2019-02-14T06:04:40.293Z,13.90
2019-02-14T06:09:44.878Z,21.42
2019-02-14T06:14:48.264Z,29.27
2019-02-14T06:19:52.082Z,45.33
2019-02-14T06:24:55.586Z,32.55
2019-02-14T06:29:58.879Z,43.40
2019-02-14T06:35:02.309Z,40.33
2019-02-14T06:40:10.838Z,26.52
2019-02-14T06:45:15.775Z,29.90
2019-02-14T06:50:20.033Z,26.57
2019-02-14T06:55:23.445Z,20.30
2019-02-14T07:00:26.743Z,27.02
2019-02-14T07:05:30.101Z,19.07
2019-02-14T07:10:33.953Z,20.90
2019-02-14T07:15:38.257Z,20.52
2019-02-14T07:20:41.739Z,23.12
2019-02-14T07:25:46.581Z,18.40
2019-02-14T07:30:50.615Z,16.17
2019-02-14T07:35:53.901Z,21.45
2019-02-14T07:40:57.187Z,16.07
2019-02-14T07:46:00.474Z,18.60
2019-02-14T07:51:03.878Z,17.07
2019-02-14T07:56:07.282Z,17.17
2019-02-14T08:01:10.565Z,15.78
2019-02-14T08:06:14.210Z,14.78
2019-02-14T08:11:17.788Z,17.98
2019-02-14T08:16:22.056Z,16.55
2019-02-14T08:21:26.225Z,14.10
2019-02-14T08:26:29.526Z,10.30
2019-02-14T08:31:33.560Z,11.93
2019-02-14T08:36:36.890Z,13.48
2019-02-14T08:41:40.760Z,15.45
2019-02-14T08:46:44.029Z,13.30
2019-02-14T08:51:47.430Z,8.48
2019-02-14T08:56:51.005Z,10.40
2019-02-14T09:01:54.421Z,13.75
2019-02-14T09:06:57.837Z,14.55
2019-02-14T09:12:02.309Z,14.30
2019-02-14T09:17:06.456Z,12.25
2019-02-14T09:22:09.865Z,9.70
2019-02-14T09:27:13.348Z,8.63
2019-02-14T09:32:18.386Z,10.55
2019-02-14T09:37:22.371Z,10.30
2019-02-14T09:42:26.546Z,10.18
2019-02-14T09:47:29.958Z,11.70
2019-02-14T09:52:33.475Z,13.08
2019-02-14T09:57:36.820Z,12.95
2019-02-14T10:02:40.105Z,18.20
2019-02-14T10:07:43.401Z,30.00
2019-02-14T10:12:48.666Z,22.48
2019-02-14T10:17:54.323Z,19.37
2019-02-14T10:22:59.303Z,18.45
2019-02-14T10:28:02.605Z,20.80
2019-02-14T10:33:07.647Z,23.77
2019-02-14T10:38:21.669Z,17.37
2019-02-14T10:43:18.882Z,18.73
2019-02-14T10:48:24.463Z,15.75
2019-02-14T10:53:29.087Z,15.93
2019-02-14T10:58:33.567Z,16.02
2019-02-14T11:03:38.529Z,14.50
2019-02-14T11:08:41.938Z,17.23
2019-02-14T11:13:45.339Z,14.60
2019-02-14T11:18:49.429Z,18.32
2019-02-14T11:23:52.723Z,12.80
2019-02-14T11:28:56.889Z,18.12
2019-02-14T11:34:00.390Z,17.05
2019-02-14T11:39:05.070Z,19.15
2019-02-14T11:44:08.486Z,15.70
2019-02-14T11:49:12.065Z,16.42
2019-02-14T11:54:16.518Z,17.42
2019-02-14T11:59:19.829Z,17.80
2019-02-14T12:04:24.579Z,15.13
2019-02-14T12:09:27.901Z,14.60
2019-02-14T12:14:31.328Z,11.03
2019-02-14T12:19:35.061Z,12.07
2019-02-14T12:24:39.165Z,13.53
2019-02-14T12:29:42.500Z,12.53
2019-02-14T12:34:46.749Z,12.07
2019-02-14T12:39:50.058Z,12.88
2019-02-14T12:44:53.612Z,11.73
2019-02-14T12:49:57.026Z,11.15
2019-02-14T12:55:00.553Z,13.20
2019-02-14T13:00:06.411Z,8.40
2019-02-14T13:05:09.898Z,10.65
2019-02-14T13:10:18.966Z,12.80
2019-02-14T13:15:26.793Z,12.43
2019-02-14T13:20:30.315Z,10.03
2019-02-14T13:25:34.886Z,9.68
2019-02-14T13:30:39.938Z,9.35
2019-02-14T13:35:43.297Z,10.80
2019-02-14T13:40:46.897Z,10.30
2019-02-14T13:45:50.452Z,8.88
2019-02-14T13:50:54.729Z,8.33
2019-02-14T13:55:58.301Z,12.63
2019-02-14T14:01:03.328Z,7.60
2019-02-14T14:06:07.313Z,7.62
2019-02-14T14:11:10.637Z,8.73
2019-02-14T14:16:15.338Z,10.90
2019-02-14T14:21:19.494Z,11.55
2019-02-14T14:26:22.981Z,8.30
2019-02-14T14:31:26.498Z,6.87
2019-02-14T14:36:33.206Z,7.85
2019-02-14T14:41:36.571Z,9.98
2019-02-14T14:46:40.437Z,9.85
2019-02-14T14:51:43.857Z,12.28
2019-02-14T14:56:49.252Z,8.15
2019-02-14T15:01:54.404Z,11.93
2019-02-14T15:06:59.522Z,10.28
2019-02-14T15:12:03.030Z,9.80
2019-02-14T15:17:06.445Z,10.88
2019-02-14T15:22:10.758Z,10.65
2019-02-14T15:27:14.162Z,12.60
2019-02-14T15:32:18.732Z,9.50
2019-02-14T15:37:23.785Z,132.60
2019-02-14T15:42:27.086Z,119.05
2019-02-14T15:47:30.918Z,66.92
2019-02-14T15:52:34.933Z,76.67
2019-02-14T15:57:40.487Z,64.97
2019-02-14T16:02:47.783Z,49.67
2019-02-14T16:07:53.555Z,38.30
2019-02-14T16:12:57.577Z,34.85
2019-02-14T16:18:01.629Z,40.03
2019-02-14T16:23:06.413Z,37.45
2019-02-14T16:28:11.649Z,33.30
2019-02-14T16:33:15.478Z,30.43
2019-02-14T16:38:18.766Z,29.15
2019-02-14T16:43:22.057Z,28.70
2019-02-14T16:48:26.038Z,27.50
2019-02-14T16:53:30.407Z,27.42
2019-02-14T16:58:33.874Z,22.00
2019-02-14T17:03:37.162Z,29.07
2019-02-14T17:08:41.981Z,23.70
2019-02-14T17:13:46.058Z,25.75
2019-02-14T17:18:52.162Z,21.90
2019-02-14T17:23:56.985Z,23.00
2019-02-14T17:29:00.498Z,20.68
2019-02-14T17:34:03.819Z,21.27
2019-02-14T17:39:08.815Z,20.45
2019-02-14T17:44:17.717Z,19.05
2019-02-14T17:49:23.311Z,16.90
2019-02-14T17:54:27.111Z,20.05
2019-02-14T17:59:31.294Z,18.67
2019-02-14T18:04:35.467Z,17.82
2019-02-14T18:09:38.970Z,21.80
2019-02-14T18:14:42.741Z,16.32
2019-02-14T18:19:46.101Z,20.02
2019-02-14T18:24:49.524Z,20.52
2019-02-14T18:29:52.929Z,19.32
2019-02-14T18:34:56.358Z,19.15
2019-02-14T18:40:01.288Z,15.35
2019-02-14T18:45:06.870Z,21.48
2019-02-14T18:50:14.191Z,19.40
2019-02-14T18:55:18.379Z,15.75
2019-02-14T19:00:21.970Z,18.98
2019-02-14T19:05:26.156Z,20.68
2019-02-14T19:10:29.630Z,14.45
2019-02-14T19:15:32.981Z,18.52
2019-02-14T19:20:36.490Z,16.70
2019-02-14T19:25:39.784Z,12.88
2019-02-14T19:30:43.178Z,14.38
2019-02-14T19:35:46.477Z,14.10
2019-02-14T19:40:49.770Z,13.18
2019-02-14T19:45:53.323Z,24.12
2019-02-14T19:50:56.779Z,12.78
2019-02-14T19:56:00.898Z,15.58
2019-02-14T20:01:04.708Z,14.03
2019-02-14T20:06:08.046Z,11.55
2019-02-14T20:11:11.410Z,13.65
2019-02-14T20:16:14.702Z,15.10
2019-02-14T20:21:17.993Z,16.57
2019-02-14T20:26:21.384Z,13.65
2019-02-14T20:31:25.106Z,14.38
2019-02-14T20:36:28.518Z,15.43
2019-02-14T20:41:31.934Z,12.15
2019-02-14T20:46:35.809Z,13.32
2019-02-14T20:51:39.170Z,10.50
2019-02-14T20:56:43.048Z,9.90
2019-02-14T21:01:46.762Z,17.45
2019-02-14T21:06:51.066Z,9.30
2019-02-14T21:11:55.113Z,8.53
2019-02-14T21:16:58.698Z,14.95
2019-02-14T21:22:03.038Z,22.55
2019-02-14T21:27:06.587Z,18.82
2019-02-14T21:32:10.514Z,21.15
2019-02-14T21:37:14.107Z,23.67
2019-02-14T21:42:21.762Z,17.80
2019-02-14T21:47:22.777Z,16.85
2019-02-14T21:52:26.273Z,18.05
2019-02-14T21:57:29.819Z,13.83
2019-02-14T22:02:33.331Z,15.10
2019-02-14T22:07:37.437Z,11.53
2019-02-14T22:12:42.646Z,13.40
2019-02-14T22:17:46.959Z,11.53
2019-02-14T22:22:50.346Z,16.90
2019-02-14T22:27:53.669Z,14.95
2019-02-14T22:32:57.284Z,14.18
2019-02-14T22:38:00.573Z,16.93
2019-02-14T22:43:05.039Z,16.75
2019-02-14T22:48:08.318Z,31.60
2019-02-14T22:53:12.185Z,12.45
2019-02-14T22:58:15.599Z,13.95
2019-02-14T23:03:19.126Z,11.73
2019-02-14T23:08:24.185Z,12.63
2019-02-14T23:13:27.594Z,15.40
2019-02-14T23:18:31.586Z,13.75
2019-02-14T23:23:36.642Z,10.95
2019-02-14T23:28:39.929Z,16.17
2019-02-14T23:33:43.364Z,11.00
2019-02-14T23:38:47.521Z,12.37
2019-02-14T23:43:50.927Z,11.97
2019-02-14T23:48:55.381Z,13.75
2019-02-14T23:53:59.990Z,13.25
2019-02-14T23:59:04.230Z,11.08
